Saturday, June 25, 2016, 4:39 AM EDT

KSHD, Staunton / Shenandoah

Location: Weyers Cave, VA, United States Lat: 38.267
Local Time: 4:39 AM EDT ( 8:39 GMT) Lon: -78.9
Time Zone: US/Eastern Elev: 1200 ft

Show me the last for .
Show Decoded

2016-06-25 04:15 METAR KSHD 250815Z AUTO 00000KT 4SM BR OVC008 19/19 A3013 RMK AO2 T01860185 =
2016-06-25 03:55 METAR KSHD 250755Z AUTO 00000KT 5SM BR OVC005 18/18 A3013 RMK AO2 T01830182 =
2016-06-25 03:35 METAR KSHD 250735Z AUTO 00000KT 5SM BR BKN002 OVC008 18/18 A3013 RMK AO2
                 T01820181 =
2016-06-25 03:15 METAR KSHD 250715Z AUTO 00000KT 4SM BR BKN004 OVC008 18/18 A3013 RMK AO2
                 T01820181 =
2016-06-25 02:55 METAR KSHD 250655Z AUTO 00000KT 5SM BR BKN008 BKN022 OVC029 18/18 A3013 RMK AO2
                 T01830182 =
2016-06-25 02:35 METAR KSHD 250635Z AUTO 26003KT 5SM BR BKN024 OVC031 19/18 A3012 RMK AO2
                 T01850182 =
2016-06-25 02:15 METAR KSHD 250615Z AUTO 00000KT 7SM OVC024 19/18 A3013 RMK AO2 T01860183 =
2016-06-25 01:55 METAR KSHD 250555Z AUTO 00000KT 7SM BKN022 BKN030 OVC055 19/18 A3013 RMK AO2
                 T01860183 10194 20178 402730151 =
2016-06-25 01:35 METAR KSHD 250535Z AUTO 00000KT 7SM OVC026 19/18 A3012 RMK AO2 T01860184 =
2016-06-25 01:15 METAR KSHD 250515Z AUTO 00000KT 5SM BR BKN026 OVC033 19/18 A3013 RMK AO2
                 T01850183 =
2016-06-25 00:55 METAR KSHD 250455Z AUTO 00000KT 4SM BR BKN009 BKN028 OVC036 18/18 A3012 RMK AO2
                 T01820181 =
2016-06-25 00:35 METAR KSHD 250435Z AUTO 00000KT 5SM BR OVC009 18/18 A3012 RMK AO2 T01810180 =
2016-06-25 00:15 METAR KSHD 250415Z AUTO 00000KT 2SM BR BKN009 OVC110 18/18 A3011 RMK AO2
                 T01820181 =
2016-06-24 23:55 METAR KSHD 250355Z AUTO 00000KT 7SM BKN110 19/18 A3011 RMK AO2 T01860183 =
2016-06-24 23:35 METAR KSHD 250335Z AUTO 00000KT 7SM OVC110 19/18 A3011 RMK AO2 T01870184 =
2016-06-24 23:15 METAR KSHD 250315Z AUTO 00000KT 7SM SCT016 OVC110 19/18 A3011 RMK AO2 T01850182
                 =
2016-06-24 22:55 METAR KSHD 250255Z AUTO 00000KT 7SM BKN014 BKN019 OVC110 19/18 A3011 RMK AO2 LTG
                 DSNT SE T01860183 =
2016-06-24 22:35 METAR KSHD 250235Z AUTO 00000KT 10SM BKN012 OVC110 19/18 A3011 RMK AO2 T01860183
                 =
2016-06-24 22:15 METAR KSHD 250215Z AUTO 00000KT 10SM SCT008 BKN110 19/18 A3011 RMK AO2 T01860182
                 =
2016-06-24 21:55 METAR KSHD 250155Z AUTO 29004KT 10SM BKN008 BKN060 19/18 A3010 RMK AO2 T01870181
                 =
2016-06-24 21:35 METAR KSHD 250135Z AUTO 32003KT 10SM BKN008 19/18 A3009 RMK AO2 T01870182 =
2016-06-24 21:15 METAR KSHD 250115Z AUTO 00000KT 10SM SCT008 SCT065 19/18 A3009 RMK AO2 T01860183
                 =
2016-06-24 20:55 METAR KSHD 250055Z AUTO 00000KT 10SM SCT010 BKN075 19/18 A3009 RMK AO2 T01880184
                 =
2016-06-24 20:35 METAR KSHD 250035Z AUTO 00000KT 10SM SCT007 SCT075 19/18 A3008 RMK AO2 LTG DSNT
                 S AND W T01900184 =
2016-06-24 20:15 METAR KSHD 250015Z AUTO 35005KT 10SM BKN009 BKN019 BKN047 19/19 A3008 RMK AO2
                 T01910185 =
2016-06-24 19:55 METAR KSHD 242355Z AUTO 35005KT 10SM -RA SCT015 BKN050 OVC090 19/19 A3007 RMK
                 AO2 LTG DSNT SE THRU SW P0073 60073 T01900185 10273 20190 =
2016-06-24 19:35 METAR KSHD 242335Z AUTO 35008G24KT 1SM +TSRA BKN010 BKN016 OVC021 19/18 A3008
                 RMK AO2 LTG DSNT ALQS P0056 T01920183 =
2016-06-24 19:15 METAR KSHD 242315Z AUTO 03013KT 10SM TS BKN029 BKN037 OVC100 22/18 A3003 RMK AO2
                 LTG DSNT NW THRU NE T02200180 =
2016-06-24 18:55 METAR KSHD 242255Z AUTO 04005KT 10SM TS SCT100 BKN120 26/19 A3003 RMK AO2
                 T02570193 =
2016-06-24 18:35 METAR KSHD 242235Z AUTO 13004KT 10SM BKN120 26/20 A3003 RMK AO2 T02570199 =
2016-06-24 18:15 METAR KSHD 242215Z AUTO 19003KT 10SM SCT120 26/20 A3002 RMK AO2 LTG DSNT N
                 T02600198 =
2016-06-24 17:55 METAR KSHD 242155Z AUTO 22006KT 10SM CLR 26/20 A3001 RMK AO2 T02620201 =
2016-06-24 17:35 METAR KSHD 242135Z AUTO 17007KT 10SM CLR 26/20 A3002 RMK AO2 T02610196 =
2016-06-24 17:15 METAR KSHD 242115Z AUTO 20007KT 10SM CLR 26/19 A3003 RMK AO2 LTG DSNT NE
                 T02580191 =
2016-06-24 16:55 METAR KSHD 242055Z AUTO 19006KT 10SM SCT085 SCT100 26/19 A3003 RMK AO2 LTG DSNT
                 E T02560192 =
2016-06-24 16:35 METAR KSHD 242035Z AUTO 20007KT 10SM BKN100 25/20 A3004 RMK AO2 T02540198 =
2016-06-24 16:15 METAR KSHD 242015Z AUTO 19007KT 10SM BKN100 BKN120 25/19 A3004 RMK AO2 T02460191
                 =
2016-06-24 15:55 METAR KSHD 241955Z AUTO 21010G16KT 10SM BKN090 OVC120 26/19 A3004 RMK AO2
                 T02590191 =
2016-06-24 15:35 METAR KSHD 241935Z AUTO 19007KT 10SM SCT050 SCT070 BKN090 24/19 A3005 RMK AO2
                 T02430190 =
2016-06-24 15:15 METAR KSHD 241915Z AUTO 20008KT 10SM -RA SCT033 BKN065 OVC100 24/20 A3003 RMK
                 AO2 T02440201 =
2016-06-24 14:55 METAR KSHD 241855Z AUTO 20011KT 10SM SCT033 SCT050 BKN075 26/20 A3003 RMK AO2
                 T02630202 =
2016-06-24 14:35 METAR KSHD 241835Z AUTO 20005KT 10SM BKN075 BKN120 27/19 A3002 RMK AO2 LTG DSNT
                 E T02700189 =
2016-06-24 14:15 METAR KSHD 241815Z AUTO 20003KT 10SM SCT065 BKN075 BKN120 27/19 A3003 RMK AO2
                 T02730190 =
2016-06-24 13:55 METAR KSHD 241755Z AUTO 14003KT 10SM BKN065 BKN120 27/18 A3003 RMK AO2 T02650182
                 10266 20192 =
2016-06-24 13:35 METAR KSHD 241735Z AUTO 11003KT 10SM BKN065 BKN075 BKN090 26/19 A3003 RMK AO2
                 T02630185 =
2016-06-24 13:15 METAR KSHD 241715Z AUTO 00000KT 10SM BKN090 26/19 A3003 RMK AO2 T02610190 =
2016-06-24 12:55 METAR KSHD 241655Z AUTO 07003KT 10SM BKN090 26/19 A3003 RMK AO2 T02580193 =
2016-06-24 12:35 METAR KSHD 241635Z AUTO 09003KT 10SM BKN100 26/19 A3004 RMK AO2 T02600192 =
2016-06-24 12:15 METAR KSHD 241615Z AUTO 00000KT 10SM BKN100 26/19 A3004 RMK AO2 T02560189 =
2016-06-24 11:55 METAR KSHD 241555Z AUTO 04003KT 10SM SCT110 25/20 A3004 RMK AO2 T02520197 =
2016-06-24 11:35 METAR KSHD 241535Z AUTO 00000KT 10SM SCT110 25/19 A3005 RMK AO2 LTG DSNT W
                 T02510191 =
2016-06-24 11:15 METAR KSHD 241515Z AUTO 00000KT 10SM CLR 24/20 A3005 RMK AO2 T02440199 =
2016-06-24 10:55 METAR KSHD 241455Z AUTO 00000KT 10SM SCT120 24/20 A3005 RMK AO2 T02360199 =
2016-06-24 10:35 METAR KSHD 241435Z AUTO 00000KT 10SM SCT080 BKN120 22/19 A3004 RMK AO2 T02240193
                 =
2016-06-24 10:15 METAR KSHD 241415Z AUTO 00000KT 10SM BKN080 OVC090 22/19 A3004 RMK AO2 T02190191
                 =
2016-06-24 09:55 METAR KSHD 241355Z AUTO 00000KT 10SM BKN085 OVC100 22/19 A3004 RMK AO2 T02150187
                 =
2016-06-24 09:35 METAR KSHD 241335Z AUTO 00000KT 10SM BKN075 OVC100 21/19 A3004 RMK AO2 T02100185
                 =
2016-06-24 09:15 METAR KSHD 241315Z AUTO 00000KT 10SM OVC075 21/18 A3004 RMK AO2 T02050182 =
2016-06-24 08:55 METAR KSHD 241255Z AUTO 21003KT 10SM BKN085 20/18 A3004 RMK AO2 T02030182 =
2016-06-24 08:35 METAR KSHD 241235Z AUTO 00000KT 10SM OVC085 20/18 A3003 RMK AO2 T01990183 =
2016-06-24 08:15 METAR KSHD 241215Z AUTO 00000KT 10SM OVC095 20/18 A3004 RMK AO2 T01960184 =
2016-06-24 07:55 METAR KSHD 241155Z AUTO 00000KT 10SM BKN095 19/18 A3003 RMK AO2 70015 T01920179
                 10192 20151 =
2016-06-24 07:35 METAR KSHD 241135Z AUTO 00000KT 10SM CLR 19/18 A3002 RMK AO2 T01870177 =
2016-06-24 07:15 METAR KSHD 241115Z AUTO 00000KT 10SM CLR 18/18 A3002 RMK AO2 T01820175 =
2016-06-24 06:55 METAR KSHD 241055Z AUTO 00000KT 10SM SCT090 18/17 A3001 RMK AO2 T01750170 =
2016-06-24 06:35 METAR KSHD 241035Z AUTO 00000KT 10SM BKN080 17/17 A3000 RMK AO2 T01710167 =
2016-06-24 06:15 METAR KSHD 241015Z AUTO 00000KT 7SM OVC080 16/16 A3000 RMK AO2 T01630162 =
2016-06-24 05:55 METAR KSHD 240955Z AUTO 00000KT 7SM OVC080 16/16 A2999 RMK AO2 T01610160 =
2016-06-24 05:35 METAR KSHD 240935Z AUTO 00000KT 7SM OVC080 16/16 A2998 RMK AO2 T01590158 =
2016-06-24 05:15 METAR KSHD 240915Z AUTO 00000KT 10SM BKN090 16/16 A2998 RMK AO2 T01580157 =
2016-06-24 04:55 METAR KSHD 240855Z AUTO 00000KT 10SM SCT100 16/16 A2998 RMK AO2 T01640163 =

Support USWX by starting your Amazon purchase here.